sensor_id;sensor_type;location;lat;lon;timestamp;temperature;humidity
17918;DHT22;9084;50.956;3.106;2024-03-02T00:00:26;6.60;99.90
17918;DHT22;9084;50.956;3.106;2024-03-02T00:02:52;6.60;99.90
17918;DHT22;9084;50.956;3.106;2024-03-02T00:05:22;6.60;99.90
17918;DHT22;9084;50.956;3.106;2024-03-02T00:10:21;6.50;99.90
17918;DHT22;9084;50.956;3.106;2024-03-02T00:12:51;6.50;99.90
17918;DHT22;9084;50.956;3.106;2024-03-02T00:17:58;6.50;99.90
17918;DHT22;9084;50.956;3.106;2024-03-02T00:20:26;6.50;99.90
17918;DHT22;9084;50.956;3.106;2024-03-02T00:23:02;6.50;99.90
17918;DHT22;9084;50.956;3.106;2024-03-02T00:25:44;6.50;99.90
17918;DHT22;9084;50.956;3.106;2024-03-02T00:33:27;6.40;99.90
17918;DHT22;9084;50.956;3.106;2024-03-02T00:35:53;6.40;99.90
17918;DHT22;9084;50.956;3.106;2024-03-02T00:38:19;6.30;99.90
17918;DHT22;9084;50.956;3.106;2024-03-02T00:40:52;6.30;99.90
17918;DHT22;9084;50.956;3.106;2024-03-02T00:46:03;6.20;99.90
17918;DHT22;9084;50.956;3.106;2024-03-02T00:48:29;6.20;99.90
17918;DHT22;9084;50.956;3.106;2024-03-02T00:50:57;6.10;99.90
17918;DHT22;9084;50.956;3.106;2024-03-02T00:53:26;6.10;99.90
17918;DHT22;9084;50.956;3.106;2024-03-02T00:55:52;6.00;99.90
17918;DHT22;9084;50.956;3.106;2024-03-02T00:58:18;6.10;99.90
17918;DHT22;9084;50.956;3.106;2024-03-02T01:00:44;6.00;99.90
17918;DHT22;9084;50.956;3.106;2024-03-02T01:03:12;6.00;99.90
17918;DHT22;9084;50.956;3.106;2024-03-02T01:05:44;6.00;99.90
17918;DHT22;9084;50.956;3.106;2024-03-02T01:08:10;6.00;99.90
17918;DHT22;9084;50.956;3.106;2024-03-02T01:10:36;6.00;99.90
17918;DHT22;9084;50.956;3.106;2024-03-02T01:13:01;5.90;99.90
17918;DHT22;9084;50.956;3.106;2024-03-02T01:15:27;6.00;99.90
17918;DHT22;9084;50.956;3.106;2024-03-02T01:17:53;6.00;99.90
17918;DHT22;9084;50.956;3.106;2024-03-02T01:20:19;6.00;99.90
17918;DHT22;9084;50.956;3.106;2024-03-02T01:22:44;5.90;99.90
17918;DHT22;9084;50.956;3.106;2024-03-02T01:25:10;5.90;99.90
17918;DHT22;9084;50.956;3.106;2024-03-02T01:27:35;5.90;99.90
17918;DHT22;9084;50.956;3.106;2024-03-02T01:30:03;5.80;99.90
17918;DHT22;9084;50.956;3.106;2024-03-02T01:32:29;5.80;99.90
17918;DHT22;9084;50.956;3.106;2024-03-02T01:34:55;5.90;99.90
17918;DHT22;9084;50.956;3.106;2024-03-02T01:37:21;5.90;99.90
17918;DHT22;9084;50.956;3.106;2024-03-02T01:39:51;5.90;99.90
17918;DHT22;9084;50.956;3.106;2024-03-02T01:42:22;5.90;99.90
17918;DHT22;9084;50.956;3.106;2024-03-02T01:44:48;5.80;99.90
17918;DHT22;9084;50.956;3.106;2024-03-02T01:47:13;5.90;99.90
17918;DHT22;9084;50.956;3.106;2024-03-02T01:49:39;5.80;99.90
17918;DHT22;9084;50.956;3.106;2024-03-02T01:52:06;5.90;99.90
17918;DHT22;9084;50.956;3.106;2024-03-02T01:54:32;5.80;99.90
17918;DHT22;9084;50.956;3.106;2024-03-02T01:56:58;5.80;99.90
17918;DHT22;9084;50.956;3.106;2024-03-02T01:59:25;5.80;99.90
17918;DHT22;9084;50.956;3.106;2024-03-02T02:01:50;5.80;99.90
17918;DHT22;9084;50.956;3.106;2024-03-02T02:04:18;5.80;99.90
17918;DHT22;9084;50.956;3.106;2024-03-02T02:06:47;5.80;99.90
17918;DHT22;9084;50.956;3.106;2024-03-02T02:09:12;5.80;99.90
17918;DHT22;9084;50.956;3.106;2024-03-02T02:11:43;5.80;99.90
17918;DHT22;9084;50.956;3.106;2024-03-02T02:14:08;5.80;99.90
17918;DHT22;9084;50.956;3.106;2024-03-02T02:16:36;5.70;99.90
17918;DHT22;9084;50.956;3.106;2024-03-02T02:19:04;5.70;99.90
17918;DHT22;9084;50.956;3.106;2024-03-02T02:21:30;5.80;99.90
17918;DHT22;9084;50.956;3.106;2024-03-02T02:23:56;5.70;99.90
17918;DHT22;9084;50.956;3.106;2024-03-02T02:26:23;5.70;99.90
17918;DHT22;9084;50.956;3.106;2024-03-02T02:28:49;5.70;99.90
17918;DHT22;9084;50.956;3.106;2024-03-02T02:31:17;5.70;99.90
17918;DHT22;9084;50.956;3.106;2024-03-02T02:33:45;5.70;99.90
17918;DHT22;9084;50.956;3.106;2024-03-02T02:36:11;5.70;99.90
17918;DHT22;9084;50.956;3.106;2024-03-02T02:38:40;5.60;99.90
17918;DHT22;9084;50.956;3.106;2024-03-02T02:41:10;5.60;99.90
17918;DHT22;9084;50.956;3.106;2024-03-02T02:43:38;5.60;99.90
17918;DHT22;9084;50.956;3.106;2024-03-02T02:46:05;5.60;99.90
17918;DHT22;9084;50.956;3.106;2024-03-02T02:48:36;5.60;99.90
17918;DHT22;9084;50.956;3.106;2024-03-02T02:51:02;5.60;99.90
17918;DHT22;9084;50.956;3.106;2024-03-02T02:53:27;5.60;99.90
17918;DHT22;9084;50.956;3.106;2024-03-02T02:55:53;5.60;99.90
17918;DHT22;9084;50.956;3.106;2024-03-02T02:58:18;5.60;99.90
17918;DHT22;9084;50.956;3.106;2024-03-02T03:00:46;5.60;99.90
17918;DHT22;9084;50.956;3.106;2024-03-02T03:03:17;5.50;99.90
17918;DHT22;9084;50.956;3.106;2024-03-02T03:05:45;5.60;99.90
17918;DHT22;9084;50.956;3.106;2024-03-02T03:08:10;5.50;99.90
17918;DHT22;9084;50.956;3.106;2024-03-02T03:10:36;5.50;99.90
17918;DHT22;9084;50.956;3.106;2024-03-02T03:13:06;5.50;99.90
17918;DHT22;9084;50.956;3.106;2024-03-02T03:15:36;5.50;99.90
17918;DHT22;9084;50.956;3.106;2024-03-02T03:18:05;5.40;99.90
17918;DHT22;9084;50.956;3.106;2024-03-02T03:20:33;5.40;99.90
17918;DHT22;9084;50.956;3.106;2024-03-02T03:22:59;5.40;99.90
17918;DHT22;9084;50.956;3.106;2024-03-02T03:25:25;5.40;99.90
17918;DHT22;9084;50.956;3.106;2024-03-02T03:27:51;5.40;99.90
17918;DHT22;9084;50.956;3.106;2024-03-02T03:30:19;5.40;99.90
17918;DHT22;9084;50.956;3.106;2024-03-02T03:32:45;5.50;99.90
17918;DHT22;9084;50.956;3.106;2024-03-02T03:35:15;5.50;99.90
17918;DHT22;9084;50.956;3.106;2024-03-02T03:37:43;5.50;99.90
17918;DHT22;9084;50.956;3.106;2024-03-02T03:40:10;5.50;99.90
17918;DHT22;9084;50.956;3.106;2024-03-02T03:42:39;5.50;99.90
17918;DHT22;9084;50.956;3.106;2024-03-02T03:45:07;5.50;99.90
17918;DHT22;9084;50.956;3.106;2024-03-02T03:47:33;5.50;99.90
17918;DHT22;9084;50.956;3.106;2024-03-02T03:49:58;5.50;99.90
17918;DHT22;9084;50.956;3.106;2024-03-02T03:52:24;5.50;99.90
17918;DHT22;9084;50.956;3.106;2024-03-02T03:54:53;5.50;99.90
17918;DHT22;9084;50.956;3.106;2024-03-02T03:57:21;5.50;99.90
17918;DHT22;9084;50.956;3.106;2024-03-02T03:59:49;5.50;99.90
17918;DHT22;9084;50.956;3.106;2024-03-02T04:02:14;5.50;99.90
17918;DHT22;9084;50.956;3.106;2024-03-02T04:04:42;5.50;99.90
17918;DHT22;9084;50.956;3.106;2024-03-02T04:07:09;5.50;99.90
17918;DHT22;9084;50.956;3.106;2024-03-02T04:09:34;5.50;99.90
17918;DHT22;9084;50.956;3.106;2024-03-02T04:12:00;5.50;99.90
17918;DHT22;9084;50.956;3.106;2024-03-02T04:14:28;5.40;99.90
17918;DHT22;9084;50.956;3.106;2024-03-02T04:16:56;5.40;99.90
17918;DHT22;9084;50.956;3.106;2024-03-02T04:19:21;5.50;99.90
17918;DHT22;9084;50.956;3.106;2024-03-02T04:21:47;5.40;99.90
17918;DHT22;9084;50.956;3.106;2024-03-02T04:24:17;5.40;99.90
17918;DHT22;9084;50.956;3.106;2024-03-02T04:26:47;5.40;99.90
17918;DHT22;9084;50.956;3.106;2024-03-02T04:29:15;5.40;99.90
17918;DHT22;9084;50.956;3.106;2024-03-02T04:31:43;5.40;99.90
17918;DHT22;9084;50.956;3.106;2024-03-02T04:34:09;5.40;99.90
17918;DHT22;9084;50.956;3.106;2024-03-02T04:36:34;5.40;99.90
17918;DHT22;9084;50.956;3.106;2024-03-02T04:39:00;5.40;99.90
17918;DHT22;9084;50.956;3.106;2024-03-02T04:41:28;5.40;99.90
17918;DHT22;9084;50.956;3.106;2024-03-02T04:43:53;5.40;99.90
17918;DHT22;9084;50.956;3.106;2024-03-02T04:46:19;5.30;99.90
17918;DHT22;9084;50.956;3.106;2024-03-02T04:48:45;5.30;99.90
17918;DHT22;9084;50.956;3.106;2024-03-02T04:51:10;5.30;99.90
17918;DHT22;9084;50.956;3.106;2024-03-02T04:53:36;5.30;99.90
17918;DHT22;9084;50.956;3.106;2024-03-02T04:56:02;5.30;99.90
17918;DHT22;9084;50.956;3.106;2024-03-02T04:58:36;5.30;99.90
17918;DHT22;9084;50.956;3.106;2024-03-02T05:01:04;5.30;99.90
17918;DHT22;9084;50.956;3.106;2024-03-02T05:03:32;5.30;99.90
17918;DHT22;9084;50.956;3.106;2024-03-02T05:06:02;5.30;99.90
17918;DHT22;9084;50.956;3.106;2024-03-02T05:08:28;5.30;99.90
17918;DHT22;9084;50.956;3.106;2024-03-02T05:10:54;5.30;99.90
17918;DHT22;9084;50.956;3.106;2024-03-02T05:13:19;5.30;99.90
17918;DHT22;9084;50.956;3.106;2024-03-02T05:15:46;5.20;99.90
17918;DHT22;9084;50.956;3.106;2024-03-02T05:18:12;5.20;99.90
17918;DHT22;9084;50.956;3.106;2024-03-02T05:20:40;5.20;99.90
17918;DHT22;9084;50.956;3.106;2024-03-02T05:23:08;5.20;99.90
17918;DHT22;9084;50.956;3.106;2024-03-02T05:25:33;5.30;99.90
17918;DHT22;9084;50.956;3.106;2024-03-02T05:28:00;5.20;99.90
17918;DHT22;9084;50.956;3.106;2024-03-02T05:30:26;5.20;99.90
17918;DHT22;9084;50.956;3.106;2024-03-02T05:32:54;5.20;99.90
17918;DHT22;9084;50.956;3.106;2024-03-02T05:35:19;5.10;99.90
17918;DHT22;9084;50.956;3.106;2024-03-02T05:37:45;5.20;99.90
17918;DHT22;9084;50.956;3.106;2024-03-02T05:40:11;5.10;99.90
17918;DHT22;9084;50.956;3.106;2024-03-02T05:42:36;5.20;99.90
17918;DHT22;9084;50.956;3.106;2024-03-02T05:45:02;5.10;99.90
17918;DHT22;9084;50.956;3.106;2024-03-02T05:47:28;5.10;99.90
17918;DHT22;9084;50.956;3.106;2024-03-02T05:49:56;5.20;99.90
17918;DHT22;9084;50.956;3.106;2024-03-02T05:52:24;5.20;99.90
17918;DHT22;9084;50.956;3.106;2024-03-02T05:54:51;5.20;99.90
17918;DHT22;9084;50.956;3.106;2024-03-02T05:57:19;5.20;99.90
17918;DHT22;9084;50.956;3.106;2024-03-02T06:00:13;5.20;99.90
17918;DHT22;9084;50.956;3.106;2024-03-02T06:02:42;5.20;99.90
17918;DHT22;9084;50.956;3.106;2024-03-02T06:05:07;5.20;99.90
17918;DHT22;9084;50.956;3.106;2024-03-02T06:07:35;5.20;99.90
17918;DHT22;9084;50.956;3.106;2024-03-02T06:10:04;5.10;99.90
17918;DHT22;9084;50.956;3.106;2024-03-02T06:12:31;5.10;99.90
17918;DHT22;9084;50.956;3.106;2024-03-02T06:14:57;5.10;99.90
17918;DHT22;9084;50.956;3.106;2024-03-02T06:17:25;5.10;99.90
17918;DHT22;9084;50.956;3.106;2024-03-02T06:19:56;5.10;99.90
17918;DHT22;9084;50.956;3.106;2024-03-02T06:22:21;5.10;99.90
17918;DHT22;9084;50.956;3.106;2024-03-02T06:24:52;5.10;99.90
17918;DHT22;9084;50.956;3.106;2024-03-02T06:27:20;5.10;99.90
17918;DHT22;9084;50.956;3.106;2024-03-02T06:29:46;5.10;99.90
17918;DHT22;9084;50.956;3.106;2024-03-02T06:32:11;5.10;99.90
17918;DHT22;9084;50.956;3.106;2024-03-02T06:34:39;5.10;99.90
17918;DHT22;9084;50.956;3.106;2024-03-02T06:37:09;5.20;99.90
17918;DHT22;9084;50.956;3.106;2024-03-02T06:39:35;5.20;99.90
17918;DHT22;9084;50.956;3.106;2024-03-02T06:42:01;5.20;99.90
17918;DHT22;9084;50.956;3.106;2024-03-02T06:44:27;5.20;99.90
17918;DHT22;9084;50.956;3.106;2024-03-02T06:46:55;5.20;99.90
17918;DHT22;9084;50.956;3.106;2024-03-02T06:49:20;5.20;99.90
17918;DHT22;9084;50.956;3.106;2024-03-02T06:51:46;5.20;99.90
17918;DHT22;9084;50.956;3.106;2024-03-02T06:54:12;5.20;99.90
17918;DHT22;9084;50.956;3.106;2024-03-02T06:56:37;5.30;99.90
17918;DHT22;9084;50.956;3.106;2024-03-02T06:59:05;5.30;99.90
17918;DHT22;9084;50.956;3.106;2024-03-02T07:01:31;5.30;99.90
17918;DHT22;9084;50.956;3.106;2024-03-02T07:03:56;5.40;99.90
17918;DHT22;9084;50.956;3.106;2024-03-02T07:06:22;5.40;99.90
17918;DHT22;9084;50.956;3.106;2024-03-02T07:08:50;5.40;99.90
17918;DHT22;9084;50.956;3.106;2024-03-02T07:11:16;5.40;99.90
17918;DHT22;9084;50.956;3.106;2024-03-02T07:13:44;5.50;99.90
17918;DHT22;9084;50.956;3.106;2024-03-02T07:16:09;5.50;99.90
17918;DHT22;9084;50.956;3.106;2024-03-02T07:18:55;5.50;99.90
17918;DHT22;9084;50.956;3.106;2024-03-02T07:21:24;5.60;99.90
17918;DHT22;9084;50.956;3.106;2024-03-02T07:23:53;5.60;99.90
17918;DHT22;9084;50.956;3.106;2024-03-02T07:26:19;5.60;99.90
17918;DHT22;9084;50.956;3.106;2024-03-02T07:28:48;5.70;99.90
17918;DHT22;9084;50.956;3.106;2024-03-02T07:31:14;5.70;99.90
17918;DHT22;9084;50.956;3.106;2024-03-02T07:33:40;5.70;99.90
17918;DHT22;9084;50.956;3.106;2024-03-02T07:36:07;5.80;99.90
17918;DHT22;9084;50.956;3.106;2024-03-02T07:38:35;5.80;99.90
17918;DHT22;9084;50.956;3.106;2024-03-02T07:41:01;5.80;99.90
17918;DHT22;9084;50.956;3.106;2024-03-02T07:43:28;5.80;99.90
17918;DHT22;9084;50.956;3.106;2024-03-02T07:45:57;5.80;99.90
17918;DHT22;9084;50.956;3.106;2024-03-02T07:48:23;5.90;99.90
17918;DHT22;9084;50.956;3.106;2024-03-02T07:50:52;5.90;99.90
17918;DHT22;9084;50.956;3.106;2024-03-02T07:53:20;5.90;99.90
17918;DHT22;9084;50.956;3.106;2024-03-02T07:55:48;6.00;99.90
17918;DHT22;9084;50.956;3.106;2024-03-02T07:58:13;6.00;99.90
17918;DHT22;9084;50.956;3.106;2024-03-02T08:00:42;6.00;99.90
17918;DHT22;9084;50.956;3.106;2024-03-02T08:03:08;6.10;99.90
17918;DHT22;9084;50.956;3.106;2024-03-02T08:05:36;6.20;99.90
17918;DHT22;9084;50.956;3.106;2024-03-02T08:08:03;6.20;99.90
17918;DHT22;9084;50.956;3.106;2024-03-02T08:10:29;6.30;99.90
17918;DHT22;9084;50.956;3.106;2024-03-02T08:12:56;6.30;99.90
17918;DHT22;9084;50.956;3.106;2024-03-02T08:15:22;6.40;99.90
17918;DHT22;9084;50.956;3.106;2024-03-02T08:17:48;6.50;99.90
17918;DHT22;9084;50.956;3.106;2024-03-02T08:20:16;6.60;99.90
17918;DHT22;9084;50.956;3.106;2024-03-02T08:22:42;6.50;99.90
17918;DHT22;9084;50.956;3.106;2024-03-02T08:25:12;6.60;99.90
17918;DHT22;9084;50.956;3.106;2024-03-02T08:27:39;6.60;99.90
17918;DHT22;9084;50.956;3.106;2024-03-02T08:30:07;6.60;99.90
17918;DHT22;9084;50.956;3.106;2024-03-02T08:32:35;6.70;99.90
17918;DHT22;9084;50.956;3.106;2024-03-02T08:35:04;6.70;99.90
17918;DHT22;9084;50.956;3.106;2024-03-02T08:37:32;6.80;99.90
17918;DHT22;9084;50.956;3.106;2024-03-02T08:39:59;6.80;99.90
17918;DHT22;9084;50.956;3.106;2024-03-02T08:42:27;6.80;99.90
17918;DHT22;9084;50.956;3.106;2024-03-02T08:44:54;6.90;99.90
17918;DHT22;9084;50.956;3.106;2024-03-02T08:47:24;7.00;99.90
17918;DHT22;9084;50.956;3.106;2024-03-02T08:49:50;7.10;99.90
17918;DHT22;9084;50.956;3.106;2024-03-02T08:52:18;7.30;99.90
17918;DHT22;9084;50.956;3.106;2024-03-02T08:54:44;7.40;99.90
17918;DHT22;9084;50.956;3.106;2024-03-02T08:57:10;7.60;99.90
17918;DHT22;9084;50.956;3.106;2024-03-02T08:59:35;7.60;99.90
17918;DHT22;9084;50.956;3.106;2024-03-02T09:02:04;7.70;99.90
17918;DHT22;9084;50.956;3.106;2024-03-02T09:04:34;7.80;99.90
17918;DHT22;9084;50.956;3.106;2024-03-02T09:06:59;7.90;99.90
17918;DHT22;9084;50.956;3.106;2024-03-02T09:09:28;8.00;99.90
17918;DHT22;9084;50.956;3.106;2024-03-02T09:11:55;8.00;99.90
17918;DHT22;9084;50.956;3.106;2024-03-02T09:14:23;8.10;99.90
17918;DHT22;9084;50.956;3.106;2024-03-02T09:16:51;8.20;99.90
17918;DHT22;9084;50.956;3.106;2024-03-02T09:19:17;8.20;99.90
17918;DHT22;9084;50.956;3.106;2024-03-02T09:21:45;8.30;94.80
17918;DHT22;9084;50.956;3.106;2024-03-02T09:24:11;8.40;92.70
17918;DHT22;9084;50.956;3.106;2024-03-02T09:26:41;8.40;80.10
17918;DHT22;9084;50.956;3.106;2024-03-02T09:29:07;8.40;91.50
17918;DHT22;9084;50.956;3.106;2024-03-02T09:31:32;8.40;87.40
17918;DHT22;9084;50.956;3.106;2024-03-02T09:33:58;8.50;91.90
17918;DHT22;9084;50.956;3.106;2024-03-02T09:36:26;8.60;72.50
17918;DHT22;9084;50.956;3.106;2024-03-02T09:38:54;8.60;66.10
17918;DHT22;9084;50.956;3.106;2024-03-02T09:41:19;8.80;68.70
17918;DHT22;9084;50.956;3.106;2024-03-02T09:43:45;8.80;35.00
17918;DHT22;9084;50.956;3.106;2024-03-02T09:46:15;8.80;27.20
17918;DHT22;9084;50.956;3.106;2024-03-02T09:48:43;8.90;27.40
17918;DHT22;9084;50.956;3.106;2024-03-02T09:51:09;8.90;26.70
17918;DHT22;9084;50.956;3.106;2024-03-02T09:53:38;8.90;12.50
17918;DHT22;9084;50.956;3.106;2024-03-02T09:56:04;8.90;15.00
17918;DHT22;9084;50.956;3.106;2024-03-02T09:58:30;8.90;19.50
17918;DHT22;9084;50.956;3.106;2024-03-02T10:00:58;8.90;24.60
17918;DHT22;9084;50.956;3.106;2024-03-02T10:03:23;8.80;24.80
17918;DHT22;9084;50.956;3.106;2024-03-02T10:05:52;8.80;35.30
17918;DHT22;9084;50.956;3.106;2024-03-02T10:08:18;8.80;44.50
17918;DHT22;9084;50.956;3.106;2024-03-02T10:10:43;8.80;57.30
17918;DHT22;9084;50.956;3.106;2024-03-02T10:13:10;8.90;50.90
17918;DHT22;9084;50.956;3.106;2024-03-02T10:15:38;9.00;58.70
17918;DHT22;9084;50.956;3.106;2024-03-02T10:18:07;9.10;29.90
17918;DHT22;9084;50.956;3.106;2024-03-02T10:20:33;9.20;28.50
17918;DHT22;9084;50.956;3.106;2024-03-02T10:23:14;9.20;38.70
17918;DHT22;9084;50.956;3.106;2024-03-02T10:25:40;9.30;31.70
17918;DHT22;9084;50.956;3.106;2024-03-02T10:28:06;9.40;22.10
17918;DHT22;9084;50.956;3.106;2024-03-02T10:30:38;9.50;1.50
17918;DHT22;9084;50.956;3.106;2024-03-02T10:33:05;9.60;1.00
17918;DHT22;9084;50.956;3.106;2024-03-02T10:35:33;9.60;1.00
17918;DHT22;9084;50.956;3.106;2024-03-02T10:38:06;9.60;1.00
17918;DHT22;9084;50.956;3.106;2024-03-02T10:40:32;9.70;1.00
17918;DHT22;9084;50.956;3.106;2024-03-02T10:43:01;9.70;1.00
17918;DHT22;9084;50.956;3.106;2024-03-02T10:45:29;9.80;1.00
17918;DHT22;9084;50.956;3.106;2024-03-02T10:47:55;9.80;1.00
17918;DHT22;9084;50.956;3.106;2024-03-02T10:50:21;9.80;1.00
17918;DHT22;9084;50.956;3.106;2024-03-02T10:52:47;9.90;1.00
17918;DHT22;9084;50.956;3.106;2024-03-02T10:55:13;10.00;1.00
17918;DHT22;9084;50.956;3.106;2024-03-02T10:57:50;10.00;1.00
17918;DHT22;9084;50.956;3.106;2024-03-02T11:00:15;10.10;1.00
17918;DHT22;9084;50.956;3.106;2024-03-02T11:02:50;10.10;1.00
17918;DHT22;9084;50.956;3.106;2024-03-02T11:05:24;10.30;1.00
17918;DHT22;9084;50.956;3.106;2024-03-02T11:07:57;10.50;1.00
17918;DHT22;9084;50.956;3.106;2024-03-02T11:10:23;10.70;1.00
17918;DHT22;9084;50.956;3.106;2024-03-02T11:13:02;10.70;1.00
17918;DHT22;9084;50.956;3.106;2024-03-02T11:15:28;10.70;1.00
17918;DHT22;9084;50.956;3.106;2024-03-02T11:17:54;10.70;1.00
17918;DHT22;9084;50.956;3.106;2024-03-02T11:20:21;10.70;1.00
17918;DHT22;9084;50.956;3.106;2024-03-02T11:22:47;10.70;1.00
17918;DHT22;9084;50.956;3.106;2024-03-02T11:25:26;10.70;1.00
17918;DHT22;9084;50.956;3.106;2024-03-02T11:33:08;10.80;1.00
17918;DHT22;9084;50.956;3.106;2024-03-02T11:35:38;10.90;1.00
17918;DHT22;9084;50.956;3.106;2024-03-02T11:38:07;10.90;1.00
17918;DHT22;9084;50.956;3.106;2024-03-02T11:40:32;10.80;1.00
17918;DHT22;9084;50.956;3.106;2024-03-02T11:43:01;10.80;1.00
17918;DHT22;9084;50.956;3.106;2024-03-02T11:45:28;10.80;1.00
17918;DHT22;9084;50.956;3.106;2024-03-02T11:47:57;10.70;1.00
17918;DHT22;9084;50.956;3.106;2024-03-02T11:52:58;10.60;1.00
17918;DHT22;9084;50.956;3.106;2024-03-02T11:55:28;10.60;1.00
17918;DHT22;9084;50.956;3.106;2024-03-02T11:57:55;10.50;1.00
17918;DHT22;9084;50.956;3.106;2024-03-02T12:00:26;10.40;1.00
17918;DHT22;9084;50.956;3.106;2024-03-02T12:03:07;10.40;1.00
17918;DHT22;9084;50.956;3.106;2024-03-02T12:05:34;10.20;1.00
17918;DHT22;9084;50.956;3.106;2024-03-02T12:08:07;10.10;8.60
17918;DHT22;9084;50.956;3.106;2024-03-02T12:10:34;10.00;45.80
17918;DHT22;9084;50.956;3.106;2024-03-02T12:15:33;9.90;99.90
17918;DHT22;9084;50.956;3.106;2024-03-02T12:18:00;9.80;99.90
17918;DHT22;9084;50.956;3.106;2024-03-02T12:20:28;9.80;99.90
17918;DHT22;9084;50.956;3.106;2024-03-02T12:22:57;9.80;99.90
17918;DHT22;9084;50.956;3.106;2024-03-02T12:25:26;9.80;99.90
17918;DHT22;9084;50.956;3.106;2024-03-02T12:27:59;9.70;99.90
17918;DHT22;9084;50.956;3.106;2024-03-02T12:30:29;9.80;99.90
17918;DHT22;9084;50.956;3.106;2024-03-02T12:32:55;9.70;99.90
17918;DHT22;9084;50.956;3.106;2024-03-02T12:35:20;9.70;99.90
17918;DHT22;9084;50.956;3.106;2024-03-02T12:37:53;9.60;99.90
17918;DHT22;9084;50.956;3.106;2024-03-02T12:40:20;9.50;99.90
17918;DHT22;9084;50.956;3.106;2024-03-02T12:42:47;9.50;99.90
17918;DHT22;9084;50.956;3.106;2024-03-02T12:45:14;9.50;99.90
17918;DHT22;9084;50.956;3.106;2024-03-02T12:47:42;9.50;99.90
17918;DHT22;9084;50.956;3.106;2024-03-02T12:50:11;9.50;99.90
17918;DHT22;9084;50.956;3.106;2024-03-02T12:52:38;9.50;99.90
17918;DHT22;9084;50.956;3.106;2024-03-02T12:55:06;9.50;99.90
17918;DHT22;9084;50.956;3.106;2024-03-02T12:57:35;9.50;99.90
17918;DHT22;9084;50.956;3.106;2024-03-02T13:00:05;9.40;99.90
17918;DHT22;9084;50.956;3.106;2024-03-02T13:02:41;9.40;99.90
17918;DHT22;9084;50.956;3.106;2024-03-02T13:05:08;9.50;99.90
17918;DHT22;9084;50.956;3.106;2024-03-02T13:07:37;9.60;99.90
17918;DHT22;9084;50.956;3.106;2024-03-02T13:10:04;9.60;99.90
17918;DHT22;9084;50.956;3.106;2024-03-02T13:12:30;9.70;99.90
17918;DHT22;9084;50.956;3.106;2024-03-02T13:14:58;9.80;99.90
17918;DHT22;9084;50.956;3.106;2024-03-02T13:17:27;9.80;99.90
17918;DHT22;9084;50.956;3.106;2024-03-02T13:19:57;9.80;99.90
17918;DHT22;9084;50.956;3.106;2024-03-02T13:22:28;9.80;99.90
17918;DHT22;9084;50.956;3.106;2024-03-02T13:24:56;9.80;99.90
17918;DHT22;9084;50.956;3.106;2024-03-02T13:27:23;9.90;99.90
17918;DHT22;9084;50.956;3.106;2024-03-02T13:29:50;10.10;99.90
17918;DHT22;9084;50.956;3.106;2024-03-02T13:32:18;10.30;99.90
17918;DHT22;9084;50.956;3.106;2024-03-02T13:34:49;10.40;99.90
17918;DHT22;9084;50.956;3.106;2024-03-02T13:37:15;10.50;99.90
17918;DHT22;9084;50.956;3.106;2024-03-02T13:39:40;10.30;99.90
17918;DHT22;9084;50.956;3.106;2024-03-02T13:42:09;10.30;99.90
17918;DHT22;9084;50.956;3.106;2024-03-02T13:44:36;10.10;99.90
17918;DHT22;9084;50.956;3.106;2024-03-02T13:47:02;10.00;99.90
17918;DHT22;9084;50.956;3.106;2024-03-02T13:49:28;9.90;99.90
17918;DHT22;9084;50.956;3.106;2024-03-02T13:51:59;9.80;99.90
17918;DHT22;9084;50.956;3.106;2024-03-02T13:54:28;9.70;99.90
17918;DHT22;9084;50.956;3.106;2024-03-02T13:56:55;9.60;99.90
17918;DHT22;9084;50.956;3.106;2024-03-02T13:59:23;9.50;99.90
17918;DHT22;9084;50.956;3.106;2024-03-02T14:01:49;9.40;99.90
17918;DHT22;9084;50.956;3.106;2024-03-02T14:04:15;9.30;99.90
17918;DHT22;9084;50.956;3.106;2024-03-02T14:06:43;9.20;99.90
17918;DHT22;9084;50.956;3.106;2024-03-02T14:09:11;9.30;99.90
17918;DHT22;9084;50.956;3.106;2024-03-02T14:11:39;9.30;99.90
17918;DHT22;9084;50.956;3.106;2024-03-02T14:14:05;9.30;99.90
17918;DHT22;9084;50.956;3.106;2024-03-02T14:16:37;9.30;99.90
17918;DHT22;9084;50.956;3.106;2024-03-02T14:19:03;9.20;99.90
17918;DHT22;9084;50.956;3.106;2024-03-02T14:21:30;9.20;99.90
17918;DHT22;9084;50.956;3.106;2024-03-02T14:23:56;9.10;99.90
17918;DHT22;9084;50.956;3.106;2024-03-02T14:26:24;9.10;99.90
17918;DHT22;9084;50.956;3.106;2024-03-02T14:28:49;9.10;99.90
17918;DHT22;9084;50.956;3.106;2024-03-02T14:31:15;9.00;99.90
17918;DHT22;9084;50.956;3.106;2024-03-02T14:33:41;9.00;99.90
17918;DHT22;9084;50.956;3.106;2024-03-02T14:36:07;9.00;99.90
17918;DHT22;9084;50.956;3.106;2024-03-02T14:38:33;8.90;99.90
17918;DHT22;9084;50.956;3.106;2024-03-02T14:40:59;8.90;99.90
17918;DHT22;9084;50.956;3.106;2024-03-02T14:43:25;8.90;99.90
17918;DHT22;9084;50.956;3.106;2024-03-02T14:45:53;8.90;99.90
17918;DHT22;9084;50.956;3.106;2024-03-02T14:48:19;8.90;99.90
17918;DHT22;9084;50.956;3.106;2024-03-02T14:50:45;8.90;99.90
17918;DHT22;9084;50.956;3.106;2024-03-02T14:53:11;8.90;99.90
17918;DHT22;9084;50.956;3.106;2024-03-02T14:55:37;8.90;99.90
17918;DHT22;9084;50.956;3.106;2024-03-02T14:58:05;8.80;99.90
17918;DHT22;9084;50.956;3.106;2024-03-02T15:00:36;8.80;99.90
17918;DHT22;9084;50.956;3.106;2024-03-02T15:03:01;8.80;99.90
17918;DHT22;9084;50.956;3.106;2024-03-02T15:05:29;8.70;99.90
17918;DHT22;9084;50.956;3.106;2024-03-02T15:07:57;8.70;99.90
17918;DHT22;9084;50.956;3.106;2024-03-02T15:10:24;8.70;99.90
17918;DHT22;9084;50.956;3.106;2024-03-02T15:12:52;8.70;99.90
17918;DHT22;9084;50.956;3.106;2024-03-02T15:15:18;8.60;99.90
17918;DHT22;9084;50.956;3.106;2024-03-02T15:17:44;8.60;99.90
17918;DHT22;9084;50.956;3.106;2024-03-02T15:20:10;8.60;99.90
17918;DHT22;9084;50.956;3.106;2024-03-02T15:22:36;8.60;99.90
17918;DHT22;9084;50.956;3.106;2024-03-02T15:25:04;8.60;99.90
17918;DHT22;9084;50.956;3.106;2024-03-02T15:27:32;8.60;99.90
17918;DHT22;9084;50.956;3.106;2024-03-02T15:29:58;8.60;99.90
17918;DHT22;9084;50.956;3.106;2024-03-02T15:32:26;8.50;99.90
17918;DHT22;9084;50.956;3.106;2024-03-02T15:34:53;8.50;99.90
17918;DHT22;9084;50.956;3.106;2024-03-02T15:37:19;8.50;99.90
17918;DHT22;9084;50.956;3.106;2024-03-02T15:39:47;8.40;99.90
17918;DHT22;9084;50.956;3.106;2024-03-02T15:42:13;8.30;99.90
17918;DHT22;9084;50.956;3.106;2024-03-02T15:44:39;8.30;99.90
17918;DHT22;9084;50.956;3.106;2024-03-02T15:47:05;8.30;99.90
17918;DHT22;9084;50.956;3.106;2024-03-02T15:49:33;8.30;99.90
17918;DHT22;9084;50.956;3.106;2024-03-02T15:52:01;8.40;99.90
17918;DHT22;9084;50.956;3.106;2024-03-02T15:54:27;8.30;99.90
17918;DHT22;9084;50.956;3.106;2024-03-02T15:56:53;8.30;99.90
17918;DHT22;9084;50.956;3.106;2024-03-02T15:59:19;8.30;99.90
17918;DHT22;9084;50.956;3.106;2024-03-02T16:01:44;8.40;99.90
17918;DHT22;9084;50.956;3.106;2024-03-02T16:04:10;8.30;99.90
17918;DHT22;9084;50.956;3.106;2024-03-02T16:06:36;8.40;99.90
17918;DHT22;9084;50.956;3.106;2024-03-02T16:09:01;8.40;99.90
17918;DHT22;9084;50.956;3.106;2024-03-02T16:11:29;8.40;99.90
17918;DHT22;9084;50.956;3.106;2024-03-02T16:13:54;8.40;99.90
17918;DHT22;9084;50.956;3.106;2024-03-02T16:16:20;8.40;99.90
17918;DHT22;9084;50.956;3.106;2024-03-02T16:18:46;8.40;99.90
17918;DHT22;9084;50.956;3.106;2024-03-02T16:21:11;8.40;99.90
17918;DHT22;9084;50.956;3.106;2024-03-02T16:23:38;8.30;99.90
17918;DHT22;9084;50.956;3.106;2024-03-02T16:26:06;8.30;99.90